Vega Philipp — CQID8 — position and weather

sailwx.info

Track history (hours):
 
Tides and Currents Weather Stations Pressure Air Temp Water Temp Dewpoint Dewpoint Depression Visibility Wind Speed Wind Dir Waves Ship Positions

Vega Philipp

Last reported at 2018-Feb-24 22:00 UTC. Time now 2018-Feb-24 22:10 UTC.
Position N 43°21' W 003°03'.

Length 155 m; draft 6 m.

Type: Cargo ship. MMSI: 255805932.

Date/timePositionNaut miles runAvg speedWind from/ knotsBaromVisibWave heightAir tempDewpointWater temp
2018-Feb-24 22:00N 43°21' W 003°03'0 0.0
2018-Feb-24 21:30N 43°21' W 003°03'0 0.0
2018-Feb-24 20:56N 43°21' W 003°03'0 0.0
2018-Feb-24 20:30N 43°21' W 003°03'0 0.0
2018-Feb-24 20:00N 43°21' W 003°03'0 0.0
2018-Feb-24 19:30N 43°21' W 003°03'0 0.0
2018-Feb-24 19:00N 43°21' W 003°03'0 0.0
2018-Feb-24 18:30N 43°21' W 003°03'0 0.0
2018-Feb-24 18:00N 43°21' W 003°03'0 0.0
2018-Feb-24 17:30N 43°21' W 003°03'0 0.0
2018-Feb-24 17:00N 43°21' W 003°03'0 0.0
2018-Feb-24 16:30N 43°21' W 003°03'0 0.0
2018-Feb-24 16:00N 43°21' W 003°03'0 0.0
2018-Feb-24 15:30N 43°21' W 003°03'0 0.0
2018-Feb-24 14:55N 43°21' W 003°03'0 0.0
2018-Feb-24 14:30N 43°21' W 003°03'0 0.0
2018-Feb-24 13:57N 43°21' W 003°03'0 0.0
2018-Feb-24 13:30N 43°21' W 003°03'0 0.0
2018-Feb-24 13:00N 43°21' W 003°03'0 0.0
2018-Feb-24 12:30N 43°21' W 003°03'0 0.0
2018-Feb-24 12:00N 43°21' W 003°03'0 0.0
2018-Feb-24 11:30N 43°21' W 003°03'0 0.0
2018-Feb-24 11:00N 43°21' W 003°03'0 0.0
2018-Feb-24 10:30N 43°21' W 003°03'0 0.5
2018-Feb-24 10:00N 43°21' W 003°03'3 6.8
2018-Feb-24 09:31N 43°24' W 003°06'28315.7
2018-Feb-23 15:26N 47°51' W 005°18'715.6
2018-Feb-23 14:58N 47°59' W 005°22'614.0
2018-Feb-23 14:30N 48°05' W 005°21'916.4
2018-Feb-23 13:59N 48°09' W 005°09'816.3
2018-Feb-23 13:30N 48°12' W 004°59'816.1
2018-Feb-23 13:01N 48°16' W 004°48'816.6
2018-Feb-23 12:31N 48°20' W 004°37'713.2
2018-Feb-23 12:01N 48°22' W 004°28'1 1.5
2018-Feb-23 11:30N 48°23' W 004°28'0 0.0
2018-Feb-23 11:00N 48°23' W 004°28'0 0.0
2018-Feb-23 10:30N 48°23' W 004°28'0 0.0
2018-Feb-23 10:00N 48°23' W 004°28'0 0.0
2018-Feb-23 09:30N 48°23' W 004°28'0 0.0
2018-Feb-23 09:00N 48°23' W 004°28'0 0.0
2018-Feb-23 08:30N 48°23' W 004°28'0 0.0
2018-Feb-23 08:00N 48°23' W 004°28'0 0.0
2018-Feb-23 07:30N 48°23' W 004°28'0 0.0
2018-Feb-23 07:00N 48°23' W 004°28'0 0.0
2018-Feb-23 06:30N 48°23' W 004°28'0 0.0
2018-Feb-23 06:00N 48°23' W 004°28'0 0.0
2018-Feb-23 05:30N 48°23' W 004°28'0 0.0
2018-Feb-23 05:00N 48°23' W 004°28'0 0.0
2018-Feb-23 04:30N 48°23' W 004°28'0 0.0
2018-Feb-23 04:00N 48°23' W 004°28'0 0.0
2018-Feb-23 03:30N 48°23' W 004°28'0 0.0
2018-Feb-23 03:00N 48°23' W 004°28'0 0.0
2018-Feb-23 02:30N 48°23' W 004°28'0 0.0
2018-Feb-23 02:00N 48°23' W 004°28'0 0.0
2018-Feb-23 01:30N 48°23' W 004°28'0 0.0
2018-Feb-23 01:01N 48°23' W 004°28'0 0.0
2018-Feb-23 00:31N 48°23' W 004°28'0 0.0
2018-Feb-23 00:00N 48°23' W 004°28'0 0.0
2018-Feb-22 23:31N 48°23' W 004°28'0 0.0
2018-Feb-22 23:00N 48°23' W 004°28'0 0.0
2018-Feb-22 22:30N 48°23' W 004°28'0 0.0
2018-Feb-22 22:00N 48°23' W 004°28'0 0.0
2018-Feb-22 21:30N 48°23' W 004°28'1 1.7
2018-Feb-22 21:00N 48°22' W 004°28'611.9
2018-Feb-22 20:31N 48°19' W 004°36'713.5
2018-Feb-22 20:00N 48°17' W 004°45'815.3
2018-Feb-22 19:30N 48°15' W 004°57'815.5
2018-Feb-22 19:00N 48°15' W 005°09'714.6
2018-Feb-22 18:31N 48°18' W 005°18'137 9.8
2018-Feb-22 04:26N 50°34' W 005°35'716.0
2018-Feb-22 04:00N 50°39' W 005°27'816.2
2018-Feb-22 03:30N 50°45' W 005°18'816.5
2018-Feb-22 03:00N 50°50' W 005°08'816.7
2018-Feb-22 02:31N 50°56' W 004°58'816.8
2018-Feb-22 02:01N 51°01' W 004°48'917.6
2018-Feb-22 01:31N 51°07' W 004°38'6615.7
2018-Feb-21 21:19N 51°27' W 002°58'513.3
2018-Feb-21 20:56N 51°29' W 002°50'510.8
2018-Feb-21 20:31N 51°30' W 002°43'0 0.4
2018-Feb-21 20:00N 51°30' W 002°43'0 0.7
2018-Feb-21 19:29N 51°31' W 002°42'0 0.0
2018-Feb-21 18:59N 51°31' W 002°42'0 0.0
2018-Feb-21 18:29N 51°31' W 002°42'0 0.0
2018-Feb-21 17:59N 51°31' W 002°42'0 0.0
2018-Feb-21 17:29N 51°31' W 002°42'0 0.0
2018-Feb-21 16:59N 51°31' W 002°42'0 0.0
2018-Feb-21 16:29N 51°31' W 002°42'0 0.0
2018-Feb-21 15:59N 51°31' W 002°42'0 0.0
2018-Feb-21 15:29N 51°31' W 002°42'0 0.0
2018-Feb-21 14:59N 51°31' W 002°42'0 0.0
2018-Feb-21 14:29N 51°31' W 002°42'0 0.0
2018-Feb-21 13:59N 51°31' W 002°42'0 0.0
2018-Feb-21 13:29N 51°31' W 002°42'0 0.0
2018-Feb-21 12:59N 51°31' W 002°42'0 0.0
2018-Feb-21 12:29N 51°31' W 002°42'0 0.0
2018-Feb-21 11:59N 51°31' W 002°42'0 0.0
2018-Feb-21 11:29N 51°31' W 002°42'0 0.0
2018-Feb-21 11:00N 51°31' W 002°42'0 0.0
2018-Feb-21 10:31N 51°31' W 002°42'0 0.0
2018-Feb-21 10:00N 51°31' W 002°42'0 0.0
2018-Feb-21 09:31N 51°31' W 002°42'0 0.4
2018-Feb-21 09:01N 51°30' W 002°42'0 0.6
2018-Feb-21 08:30N 51°30' W 002°43'0 0.8
2018-Feb-21 08:01N 51°31' W 002°43'2 4.2
2018-Feb-21 07:30N 51°30' W 002°46'128 6.6
2018-Feb-20 12:00N 53°33' W 003°43'713.8
2018-Feb-20 11:30N 53°33' W 003°32'713.5
2018-Feb-20 11:00N 53°33' W 003°20'5 9.2
2018-Feb-20 10:30N 53°31' W 003°13'5 9.6
2018-Feb-20 10:00N 53°30' W 003°05'4 7.2
2018-Feb-20 09:29N 53°27' W 003°01'0 0.2
2018-Feb-20 08:59N 53°27' W 003°01'0 0.0
2018-Feb-20 08:29N 53°27' W 003°01'1 1.3
2018-Feb-20 07:59N 53°28' W 003°02'0 0.0
2018-Feb-20 07:29N 53°28' W 003°02'0 0.0
2018-Feb-20 06:59N 53°28' W 003°02'0 0.0
2018-Feb-20 06:29N 53°28' W 003°02'0 0.0
2018-Feb-20 06:00N 53°28' W 003°02'0 0.0
2018-Feb-20 05:30N 53°28' W 003°02'0 0.0
2018-Feb-20 05:00N 53°28' W 003°02'0 0.0
2018-Feb-20 04:30N 53°28' W 003°02'0 0.0
2018-Feb-20 04:00N 53°28' W 003°02'0 0.0
2018-Feb-20 03:30N 53°28' W 003°02'0 0.0
2018-Feb-20 03:00N 53°28' W 003°02'0 0.0
2018-Feb-20 02:30N 53°28' W 003°02'0 0.0
2018-Feb-20 02:00N 53°28' W 003°02'0 0.0
2018-Feb-20 01:30N 53°28' W 003°02'0 0.0
2018-Feb-20 01:00N 53°28' W 003°02'0 0.0
2018-Feb-20 00:30N 53°28' W 003°02'0 0.0
2018-Feb-20 00:00N 53°28' W 003°02'0 0.0
2018-Feb-19 23:30N 53°28' W 003°02'0 0.0
2018-Feb-19 23:00N 53°28' W 003°02'0 0.0
2018-Feb-19 22:30N 53°28' W 003°02'0 0.0
2018-Feb-19 22:00N 53°28' W 003°02'0 0.0
2018-Feb-19 21:30N 53°28' W 003°02'0 0.0
2018-Feb-19 21:00N 53°28' W 003°02'0 0.0
2018-Feb-19 20:30N 53°28' W 003°02'0 0.0
2018-Feb-19 20:00N 53°28' W 003°02'0 0.0
2018-Feb-19 19:30N 53°28' W 003°02'0 0.0
2018-Feb-19 19:00N 53°28' W 003°02'0 0.0
2018-Feb-19 18:29N 53°28' W 003°02'0 0.0
2018-Feb-19 18:00N 53°28' W 003°02'0 0.0
2018-Feb-19 17:30N 53°28' W 003°02'0 0.0
2018-Feb-19 17:00N 53°28' W 003°02'0 0.0
2018-Feb-19 16:30N 53°28' W 003°02'0 0.0
2018-Feb-19 16:00N 53°28' W 003°02'0 0.0
2018-Feb-19 15:30N 53°28' W 003°02'0 0.0
2018-Feb-19 15:00N 53°28' W 003°02'0 0.0
2018-Feb-19 14:30N 53°28' W 003°02'0 0.0
2018-Feb-19 14:00N 53°28' W 003°02'0 0.0
2018-Feb-19 13:30N 53°28' W 003°02'0 0.2
2018-Feb-19 13:00N 53°28' W 003°02'0 0.2
2018-Feb-19 12:30N 53°28' W 003°02'0 0.0
2018-Feb-19 12:00N 53°28' W 003°02'0 0.0
2018-Feb-19 11:30N 53°28' W 003°02'0 0.0
2018-Feb-19 11:00N 53°28' W 003°02'0 0.0
2018-Feb-19 10:29N 53°28' W 003°02'0 0.5
2018-Feb-19 10:00N 53°28' W 003°01'1 1.0
2018-Feb-19 09:30N 53°27' W 003°01'0 0.4
2018-Feb-19 09:00N 53°27' W 003°01'0 0.4
2018-Feb-19 08:30N 53°27' W 003°01'3 6.1
2018-Feb-19 08:00N 53°29' W 003°05'4 8.2
2018-Feb-19 07:30N 53°32' W 003°10'4 8.7
2018-Feb-19 07:00N 53°31' W 003°17'4 7.2
2018-Feb-19 06:30N 53°31' W 003°23'510.3
2018-Feb-19 06:00N 53°31' W 003°32'510.5
2018-Feb-19 05:30N 53°31' W 003°40'60213.4
2018-Feb-17 08:42N 43°29' W 003°09'314.5
2018-Feb-17 08:30N 43°27' W 003°07'611.7
2018-Feb-17 07:58N 43°21' W 003°03'0 0.7
2018-Feb-17 07:30N 43°21' W 003°03'0 0.0
2018-Feb-17 07:00N 43°21' W 003°03'0 0.0
2018-Feb-17 06:30N 43°21' W 003°03'0 0.0
2018-Feb-17 06:00N 43°21' W 003°03'0 0.0
2018-Feb-17 05:31N 43°21' W 003°03'0 0.0
2018-Feb-17 05:01N 43°21' W 003°03'0 0.0
2018-Feb-17 04:30N 43°21' W 003°03'0 0.0
2018-Feb-17 04:01N 43°21' W 003°03'0 0.0
2018-Feb-17 03:30N 43°21' W 003°03'0 0.0
2018-Feb-17 03:00N 43°21' W 003°03'0 0.0
2018-Feb-17 02:30N 43°21' W 003°03'0 0.0
2018-Feb-17 01:59N 43°21' W 003°03'0 0.0
2018-Feb-17 01:27N 43°21' W 003°03'0 0.0
2018-Feb-17 01:00N 43°21' W 003°03'0 0.1
2018-Feb-17 00:30N 43°21' W 003°03'0 0.0
2018-Feb-17 00:00N 43°21' W 003°03'0 0.0
2018-Feb-16 23:30N 43°21' W 003°03'0 0.0
2018-Feb-16 23:00N 43°21' W 003°03'0 0.0
2018-Feb-16 22:30N 43°21' W 003°03'0 0.0
2018-Feb-16 22:00N 43°21' W 003°03'0 0.0
2018-Feb-16 21:30N 43°21' W 003°03'0 0.0
2018-Feb-16 21:01N 43°21' W 003°03'0 0.0
2018-Feb-16 20:30N 43°21' W 003°03'0 0.0
2018-Feb-16 20:01N 43°21' W 003°03'0 0.0
2018-Feb-16 19:31N 43°21' W 003°03'0 0.0
2018-Feb-16 19:01N 43°21' W 003°03'0 0.0
2018-Feb-16 18:30N 43°21' W 003°03'0 0.0
2018-Feb-16 18:00N 43°21' W 003°03'0 0.0
2018-Feb-16 17:31N 43°21' W 003°03'0 0.0
2018-Feb-16 17:00N 43°21' W 003°03'0 0.0
2018-Feb-16 16:31N 43°21' W 003°03'0 0.0
2018-Feb-16 15:59N 43°21' W 003°03'0 0.0
2018-Feb-16 15:30N 43°21' W 003°03'0 0.0
2018-Feb-16 15:00N 43°21' W 003°03'0 0.0
2018-Feb-16 14:29N 43°21' W 003°03'0 0.0
2018-Feb-16 14:01N 43°21' W 003°03'0 0.0
2018-Feb-16 13:31N 43°21' W 003°03'0 0.0
2018-Feb-16 13:01N 43°21' W 003°03'0 0.0
2018-Feb-16 12:30N 43°21' W 003°03'0 0.0
2018-Feb-16 12:01N 43°21' W 003°03'0 0.0
2018-Feb-16 11:30N 43°21' W 003°03'0 0.0
2018-Feb-16 11:01N 43°21' W 003°03'0 0.0
2018-Feb-16 10:30N 43°21' W 003°03'0 0.0
2018-Feb-16 10:01N 43°21' W 003°03'0 0.0
2018-Feb-16 09:31N 43°21' W 003°03'0 0.0
2018-Feb-16 09:01N 43°21' W 003°03'0 0.0
2018-Feb-16 08:31N 43°21' W 003°03'0 0.0
2018-Feb-16 08:00N 43°21' W 003°03'0 0.0
2018-Feb-16 07:27N 43°21' W 003°03'0 0.0
2018-Feb-16 07:01N 43°21' W 003°03'0 0.0
2018-Feb-16 06:31N 43°21' W 003°03'0 0.0
2018-Feb-16 06:00N 43°21' W 003°03'0 0.0
2018-Feb-16 05:30N 43°21' W 003°03'2 3.4
2018-Feb-16 04:59N 43°22' W 003°04'613.2
2018-Feb-16 04:30N 43°28' W 003°08'  
Track history (hours):
 
Tides and Currents Weather Stations Pressure Air Temp Water Temp Dewpoint Dewpoint Depression Visibility Wind Speed Wind Dir Waves Ship Positions

Vega Philipp

Last reported at 2018-Feb-24 22:00 UTC. Time now 2018-Feb-24 22:10 UTC.
Position N 43°21' W 003°03'.

Length 155 m; draft 6 m.

Type: Cargo ship. MMSI: 255805932.

Date/timePositionNaut miles runAvg speedWind from/ knotsBaromVisibWave heightAir tempDewpointWater temp
2018-Feb-24 22:00N 43°21' W 003°03'0 0.0
2018-Feb-24 21:30N 43°21' W 003°03'0 0.0
2018-Feb-24 20:56N 43°21' W 003°03'0 0.0
2018-Feb-24 20:30N 43°21' W 003°03'0 0.0
2018-Feb-24 20:00N 43°21' W 003°03'0 0.0
2018-Feb-24 19:30N 43°21' W 003°03'0 0.0
2018-Feb-24 19:00N 43°21' W 003°03'0 0.0
2018-Feb-24 18:30N 43°21' W 003°03'0 0.0
2018-Feb-24 18:00N 43°21' W 003°03'0 0.0
2018-Feb-24 17:30N 43°21' W 003°03'0 0.0
2018-Feb-24 17:00N 43°21' W 003°03'0 0.0
2018-Feb-24 16:30N 43°21' W 003°03'0 0.0
2018-Feb-24 16:00N 43°21' W 003°03'0 0.0
2018-Feb-24 15:30N 43°21' W 003°03'0 0.0
2018-Feb-24 14:55N 43°21' W 003°03'0 0.0
2018-Feb-24 14:30N 43°21' W 003°03'0 0.0
2018-Feb-24 13:57N 43°21' W 003°03'0 0.0
2018-Feb-24 13:30N 43°21' W 003°03'0 0.0
2018-Feb-24 13:00N 43°21' W 003°03'0 0.0
2018-Feb-24 12:30N 43°21' W 003°03'0 0.0
2018-Feb-24 12:00N 43°21' W 003°03'0 0.0
2018-Feb-24 11:30N 43°21' W 003°03'0 0.0
2018-Feb-24 11:00N 43°21' W 003°03'0 0.0
2018-Feb-24 10:30N 43°21' W 003°03'0 0.5
2018-Feb-24 10:00N 43°21' W 003°03'3 6.8
2018-Feb-24 09:31N 43°24' W 003°06'28315.7
2018-Feb-23 15:26N 47°51' W 005°18'715.6
2018-Feb-23 14:58N 47°59' W 005°22'614.0
2018-Feb-23 14:30N 48°05' W 005°21'916.4
2018-Feb-23 13:59N 48°09' W 005°09'816.3
2018-Feb-23 13:30N 48°12' W 004°59'816.1
2018-Feb-23 13:01N 48°16' W 004°48'816.6
2018-Feb-23 12:31N 48°20' W 004°37'713.2
2018-Feb-23 12:01N 48°22' W 004°28'1 1.5
2018-Feb-23 11:30N 48°23' W 004°28'0 0.0
2018-Feb-23 11:00N 48°23' W 004°28'0 0.0
2018-Feb-23 10:30N 48°23' W 004°28'0 0.0
2018-Feb-23 10:00N 48°23' W 004°28'0 0.0
2018-Feb-23 09:30N 48°23' W 004°28'0 0.0
2018-Feb-23 09:00N 48°23' W 004°28'0 0.0
2018-Feb-23 08:30N 48°23' W 004°28'0 0.0
2018-Feb-23 08:00N 48°23' W 004°28'0 0.0
2018-Feb-23 07:30N 48°23' W 004°28'0 0.0
2018-Feb-23 07:00N 48°23' W 004°28'0 0.0
2018-Feb-23 06:30N 48°23' W 004°28'0 0.0
2018-Feb-23 06:00N 48°23' W 004°28'0 0.0
2018-Feb-23 05:30N 48°23' W 004°28'0 0.0
2018-Feb-23 05:00N 48°23' W 004°28'0 0.0
2018-Feb-23 04:30N 48°23' W 004°28'0 0.0
2018-Feb-23 04:00N 48°23' W 004°28'0 0.0
2018-Feb-23 03:30N 48°23' W 004°28'0 0.0
2018-Feb-23 03:00N 48°23' W 004°28'0 0.0
2018-Feb-23 02:30N 48°23' W 004°28'0 0.0
2018-Feb-23 02:00N 48°23' W 004°28'0 0.0
2018-Feb-23 01:30N 48°23' W 004°28'0 0.0
2018-Feb-23 01:01N 48°23' W 004°28'0 0.0
2018-Feb-23 00:31N 48°23' W 004°28'0 0.0
2018-Feb-23 00:00N 48°23' W 004°28'0 0.0
2018-Feb-22 23:31N 48°23' W 004°28'0 0.0
2018-Feb-22 23:00N 48°23' W 004°28'0 0.0
2018-Feb-22 22:30N 48°23' W 004°28'0 0.0
2018-Feb-22 22:00N 48°23' W 004°28'0 0.0
2018-Feb-22 21:30N 48°23' W 004°28'1 1.7
2018-Feb-22 21:00N 48°22' W 004°28'611.9
2018-Feb-22 20:31N 48°19' W 004°36'713.5
2018-Feb-22 20:00N 48°17' W 004°45'815.3
2018-Feb-22 19:30N 48°15' W 004°57'815.5
2018-Feb-22 19:00N 48°15' W 005°09'714.6
2018-Feb-22 18:31N 48°18' W 005°18'137 9.8
2018-Feb-22 04:26N 50°34' W 005°35'716.0
2018-Feb-22 04:00N 50°39' W 005°27'816.2
2018-Feb-22 03:30N 50°45' W 005°18'816.5
2018-Feb-22 03:00N 50°50' W 005°08'816.7
2018-Feb-22 02:31N 50°56' W 004°58'816.8
2018-Feb-22 02:01N 51°01' W 004°48'917.6
2018-Feb-22 01:31N 51°07' W 004°38'6615.7
2018-Feb-21 21:19N 51°27' W 002°58'513.3
2018-Feb-21 20:56N 51°29' W 002°50'510.8
2018-Feb-21 20:31N 51°30' W 002°43'0 0.4
2018-Feb-21 20:00N 51°30' W 002°43'0 0.7
2018-Feb-21 19:29N 51°31' W 002°42'0 0.0
2018-Feb-21 18:59N 51°31' W 002°42'0 0.0
2018-Feb-21 18:29N 51°31' W 002°42'0 0.0
2018-Feb-21 17:59N 51°31' W 002°42'0 0.0
2018-Feb-21 17:29N 51°31' W 002°42'0 0.0
2018-Feb-21 16:59N 51°31' W 002°42'0 0.0
2018-Feb-21 16:29N 51°31' W 002°42'0 0.0
2018-Feb-21 15:59N 51°31' W 002°42'0 0.0
2018-Feb-21 15:29N 51°31' W 002°42'0 0.0
2018-Feb-21 14:59N 51°31' W 002°42'0 0.0
2018-Feb-21 14:29N 51°31' W 002°42'0 0.0
2018-Feb-21 13:59N 51°31' W 002°42'0 0.0
2018-Feb-21 13:29N 51°31' W 002°42'0 0.0
2018-Feb-21 12:59N 51°31' W 002°42'0 0.0
2018-Feb-21 12:29N 51°31' W 002°42'0 0.0
2018-Feb-21 11:59N 51°31' W 002°42'0 0.0
2018-Feb-21 11:29N 51°31' W 002°42'0 0.0
2018-Feb-21 11:00N 51°31' W 002°42'0 0.0
2018-Feb-21 10:31N 51°31' W 002°42'0 0.0
2018-Feb-21 10:00N 51°31' W 002°42'0 0.0
2018-Feb-21 09:31N 51°31' W 002°42'0 0.4
2018-Feb-21 09:01N 51°30' W 002°42'0 0.6
2018-Feb-21 08:30N 51°30' W 002°43'0 0.8
2018-Feb-21 08:01N 51°31' W 002°43'2 4.2
2018-Feb-21 07:30N 51°30' W 002°46'128 6.6
2018-Feb-20 12:00N 53°33' W 003°43'713.8
2018-Feb-20 11:30N 53°33' W 003°32'713.5
2018-Feb-20 11:00N 53°33' W 003°20'5 9.2
2018-Feb-20 10:30N 53°31' W 003°13'5 9.6
2018-Feb-20 10:00N 53°30' W 003°05'4 7.2
2018-Feb-20 09:29N 53°27' W 003°01'0 0.2
2018-Feb-20 08:59N 53°27' W 003°01'0 0.0
2018-Feb-20 08:29N 53°27' W 003°01'1 1.3
2018-Feb-20 07:59N 53°28' W 003°02'0 0.0
2018-Feb-20 07:29N 53°28' W 003°02'0 0.0
2018-Feb-20 06:59N 53°28' W 003°02'0 0.0
2018-Feb-20 06:29N 53°28' W 003°02'0 0.0
2018-Feb-20 06:00N 53°28' W 003°02'0 0.0
2018-Feb-20 05:30N 53°28' W 003°02'0 0.0
2018-Feb-20 05:00N 53°28' W 003°02'0 0.0
2018-Feb-20 04:30N 53°28' W 003°02'0 0.0
2018-Feb-20 04:00N 53°28' W 003°02'0 0.0
2018-Feb-20 03:30N 53°28' W 003°02'0 0.0
2018-Feb-20 03:00N 53°28' W 003°02'0 0.0
2018-Feb-20 02:30N 53°28' W 003°02'0 0.0
2018-Feb-20 02:00N 53°28' W 003°02'0 0.0
2018-Feb-20 01:30N 53°28' W 003°02'0 0.0
2018-Feb-20 01:00N 53°28' W 003°02'0 0.0
2018-Feb-20 00:30N 53°28' W 003°02'0 0.0
2018-Feb-20 00:00N 53°28' W 003°02'0 0.0
2018-Feb-19 23:30N 53°28' W 003°02'0 0.0
2018-Feb-19 23:00N 53°28' W 003°02'0 0.0
2018-Feb-19 22:30N 53°28' W 003°02'0 0.0
2018-Feb-19 22:00N 53°28' W 003°02'0 0.0
2018-Feb-19 21:30N 53°28' W 003°02'0 0.0
2018-Feb-19 21:00N 53°28' W 003°02'0 0.0
2018-Feb-19 20:30N 53°28' W 003°02'0 0.0
2018-Feb-19 20:00N 53°28' W 003°02'0 0.0
2018-Feb-19 19:30N 53°28' W 003°02'0 0.0
2018-Feb-19 19:00N 53°28' W 003°02'0 0.0
2018-Feb-19 18:29N 53°28' W 003°02'0 0.0
2018-Feb-19 18:00N 53°28' W 003°02'0 0.0
2018-Feb-19 17:30N 53°28' W 003°02'0 0.0
2018-Feb-19 17:00N 53°28' W 003°02'0 0.0
2018-Feb-19 16:30N 53°28' W 003°02'0 0.0
2018-Feb-19 16:00N 53°28' W 003°02'0 0.0
2018-Feb-19 15:30N 53°28' W 003°02'0 0.0
2018-Feb-19 15:00N 53°28' W 003°02'0 0.0
2018-Feb-19 14:30N 53°28' W 003°02'0 0.0
2018-Feb-19 14:00N 53°28' W 003°02'0 0.0
2018-Feb-19 13:30N 53°28' W 003°02'0 0.2
2018-Feb-19 13:00N 53°28' W 003°02'0 0.2
2018-Feb-19 12:30N 53°28' W 003°02'0 0.0
2018-Feb-19 12:00N 53°28' W 003°02'0 0.0
2018-Feb-19 11:30N 53°28' W 003°02'0 0.0
2018-Feb-19 11:00N 53°28' W 003°02'0 0.0
2018-Feb-19 10:29N 53°28' W 003°02'0 0.5
2018-Feb-19 10:00N 53°28' W 003°01'1 1.0
2018-Feb-19 09:30N 53°27' W 003°01'0 0.4
2018-Feb-19 09:00N 53°27' W 003°01'0 0.4
2018-Feb-19 08:30N 53°27' W 003°01'3 6.1
2018-Feb-19 08:00N 53°29' W 003°05'4 8.2
2018-Feb-19 07:30N 53°32' W 003°10'4 8.7
2018-Feb-19 07:00N 53°31' W 003°17'4 7.2
2018-Feb-19 06:30N 53°31' W 003°23'510.3
2018-Feb-19 06:00N 53°31' W 003°32'510.5
2018-Feb-19 05:30N 53°31' W 003°40'60213.4
2018-Feb-17 08:42N 43°29' W 003°09'314.5
2018-Feb-17 08:30N 43°27' W 003°07'611.7
2018-Feb-17 07:58N 43°21' W 003°03'0 0.7
2018-Feb-17 07:30N 43°21' W 003°03'0 0.0
2018-Feb-17 07:00N 43°21' W 003°03'0 0.0
2018-Feb-17 06:30N 43°21' W 003°03'0 0.0
2018-Feb-17 06:00N 43°21' W 003°03'0 0.0
2018-Feb-17 05:31N 43°21' W 003°03'0 0.0
2018-Feb-17 05:01N 43°21' W 003°03'0 0.0
2018-Feb-17 04:30N 43°21' W 003°03'0 0.0
2018-Feb-17 04:01N 43°21' W 003°03'0 0.0
2018-Feb-17 03:30N 43°21' W 003°03'0 0.0
2018-Feb-17 03:00N 43°21' W 003°03'0 0.0
2018-Feb-17 02:30N 43°21' W 003°03'0 0.0
2018-Feb-17 01:59N 43°21' W 003°03'0 0.0
2018-Feb-17 01:27N 43°21' W 003°03'0 0.0
2018-Feb-17 01:00N 43°21' W 003°03'0 0.1
2018-Feb-17 00:30N 43°21' W 003°03'0 0.0
2018-Feb-17 00:00N 43°21' W 003°03'0 0.0
2018-Feb-16 23:30N 43°21' W 003°03'0 0.0
2018-Feb-16 23:00N 43°21' W 003°03'0 0.0
2018-Feb-16 22:30N 43°21' W 003°03'0 0.0
2018-Feb-16 22:00N 43°21' W 003°03'0 0.0
2018-Feb-16 21:30N 43°21' W 003°03'0 0.0
2018-Feb-16 21:01N 43°21' W 003°03'0 0.0
2018-Feb-16 20:30N 43°21' W 003°03'0 0.0
2018-Feb-16 20:01N 43°21' W 003°03'0 0.0
2018-Feb-16 19:31N 43°21' W 003°03'0 0.0
2018-Feb-16 19:01N 43°21' W 003°03'0 0.0
2018-Feb-16 18:30N 43°21' W 003°03'0 0.0
2018-Feb-16 18:00N 43°21' W 003°03'0 0.0
2018-Feb-16 17:31N 43°21' W 003°03'0 0.0
2018-Feb-16 17:00N 43°21' W 003°03'0 0.0
2018-Feb-16 16:31N 43°21' W 003°03'0 0.0
2018-Feb-16 15:59N 43°21' W 003°03'0 0.0
2018-Feb-16 15:30N 43°21' W 003°03'0 0.0
2018-Feb-16 15:00N 43°21' W 003°03'0 0.0
2018-Feb-16 14:29N 43°21' W 003°03'0 0.0
2018-Feb-16 14:01N 43°21' W 003°03'0 0.0
2018-Feb-16 13:31N 43°21' W 003°03'0 0.0
2018-Feb-16 13:01N 43°21' W 003°03'0 0.0
2018-Feb-16 12:30N 43°21' W 003°03'0 0.0
2018-Feb-16 12:01N 43°21' W 003°03'0 0.0
2018-Feb-16 11:30N 43°21' W 003°03'0 0.0
2018-Feb-16 11:01N 43°21' W 003°03'0 0.0
2018-Feb-16 10:30N 43°21' W 003°03'0 0.0
2018-Feb-16 10:01N 43°21' W 003°03'0 0.0
2018-Feb-16 09:31N 43°21' W 003°03'0 0.0
2018-Feb-16 09:01N 43°21' W 003°03'0 0.0
2018-Feb-16 08:31N 43°21' W 003°03'0 0.0
2018-Feb-16 08:00N 43°21' W 003°03'0 0.0
2018-Feb-16 07:27N 43°21' W 003°03'0 0.0
2018-Feb-16 07:01N 43°21' W 003°03'0 0.0
2018-Feb-16 06:31N 43°21' W 003°03'0 0.0
2018-Feb-16 06:00N 43°21' W 003°03'0 0.0
2018-Feb-16 05:30N 43°21' W 003°03'2 3.4
2018-Feb-16 04:59N 43°22' W 003°04'613.2
2018-Feb-16 04:30N 43°28' W 003°08'  

Dump ship's entire track history